Time;durP1;ratioP1;P1;durP2;ratioP2;P2;SDS_P1;SDS_P2;PMS_P1;PMS_P2;Temp;Humidity;BMP_temperature;BMP_pressure;BME280_temperature;BME280_humidity;BME280_pressure;Samples;Min_cycle;Max_cycle;Signal;HPM_P1;HPM_P2
2023/03/05 00:00:53;;;;;;;7.65;3.00;;;;;;;4.00;100.00;102014.50;5113372;28;20046;-71
2023/03/05 00:06:40;;;;;;;12.32;3.00;;;;;;;3.91;100.00;102002.13;5112909;28;20082;-70
2023/03/05 00:16:28;;;;;;;11.75;3.72;;;;;;;3.75;100.00;102010.63;5112028;28;20034;-70
2023/03/05 00:18:56;;;;;;;11.48;3.67;;;;;;;3.73;100.00;102005.47;5096287;28;20093;-70
2023/03/05 00:24:43;;;;;;;8.52;3.13;;;;;;;3.76;100.00;102001.75;5114989;28;20080;-70
2023/03/05 00:30:31;;;;;;;8.75;2.75;;;;;;;3.70;100.00;101987.25;5114749;28;20170;-70
2023/03/05 00:36:18;;;;;;;8.52;3.22;;;;;;;3.81;100.00;101996.03;5114749;28;20042;-69
2023/03/05 00:42:05;;;;;;;10.13;3.50;;;;;;;3.78;100.00;101989.19;5114466;28;20051;-69
2023/03/05 00:47:53;;;;;;;6.97;3.10;;;;;;;3.77;100.00;101978.75;5114470;28;20074;-70
2023/03/05 00:53:40;;;;;;;9.23;3.63;;;;;;;3.76;100.00;101975.28;5114336;28;20046;-71
2023/03/05 00:56:05;;;;;;;8.32;3.08;;;;;;;3.73;100.00;101973.72;5116842;28;20039;-69
2023/03/05 01:01:52;;;;;;;9.45;3.25;;;;;;;3.72;100.00;101971.22;5112037;28;20078;-71
2023/03/05 01:07:40;;;;;;;6.90;3.40;;;;;;;3.69;100.00;101964.41;5113932;28;20563;-71
2023/03/05 01:13:27;;;;;;;14.57;3.00;;;;;;;3.67;100.00;101963.72;5114080;28;20046;-71
2023/03/05 01:15:52;;;;;;;10.50;3.50;;;;;;;3.64;100.00;101949.94;5116703;27;20031;-70
2023/03/05 01:21:40;;;;;;;8.50;3.08;;;;;;;3.62;100.00;101952.75;5113781;28;20384;-71
2023/03/05 01:27:27;;;;;;;11.20;3.28;;;;;;;3.58;100.00;101934.66;5116460;28;20668;-70
2023/03/05 01:33:14;;;;;;;11.48;3.45;;;;;;;3.56;100.00;101923.38;5114733;27;20120;-71
2023/03/05 01:39:01;;;;;;;10.23;2.85;;;;;;;3.54;100.00;101914.75;5113437;28;20042;-71
2023/03/05 01:45:02;;;;;;;7.07;3.10;;;;;;;3.56;100.00;101912.81;5111530;28;20140;-70
2023/03/05 01:50:48;;;;;;;10.85;2.85;;;;;;;3.49;100.00;101906.44;5113460;28;20100;-70
2023/03/05 01:56:37;;;;;;;13.32;4.43;;;;;;;3.46;100.00;101902.22;5113014;28;20047;-69
2023/03/05 02:02:24;;;;;;;11.27;3.05;;;;;;;3.47;100.00;101892.50;5111872;28;20043;-70
2023/03/05 02:08:20;;;;;;;8.25;3.20;;;;;;;3.42;100.00;101872.59;5113271;28;20078;-71
2023/03/05 02:14:08;;;;;;;11.18;4.13;;;;;;;3.42;100.00;101864.66;5111090;28;20121;-71
2023/03/05 02:20:04;;;;;;;7.82;3.05;;;;;;;3.44;100.00;101864.53;5112841;28;20138;-70
2023/03/05 02:25:51;;;;;;;6.60;3.17;;;;;;;3.36;100.00;101854.66;5113139;28;20069;-71
2023/03/05 02:31:38;;;;;;;8.68;3.20;;;;;;;3.41;100.00;101852.44;5111839;28;20062;-71
2023/03/05 02:34:05;;;;;;;7.68;2.47;;;;;;;3.38;100.00;101850.06;5111246;28;20461;-71
2023/03/05 02:39:52;;;;;;;8.10;2.80;;;;;;;3.29;100.00;101843.00;5111821;28;20396;-71
2023/03/05 02:49:31;;;;;;;7.35;3.25;;;;;;;3.28;100.00;101835.22;5112253;28;20042;-70
2023/03/05 02:55:19;;;;;;;8.05;2.85;;;;;;;3.23;100.00;101825.06;5112537;28;20490;-72
2023/03/05 03:01:08;;;;;;;7.88;2.50;;;;;;;3.21;100.00;101821.75;5112777;28;20042;-72
2023/03/05 03:06:54;;;;;;;11.13;3.20;;;;;;;3.18;100.00;101814.09;5112384;28;20043;-70
2023/03/05 03:09:20;;;;;;;5.47;3.03;;;;;;;3.16;100.00;101813.38;5115072;27;20467;-72
2023/03/05 03:11:45;;;;;;;8.25;2.92;;;;;;;3.16;100.00;101809.91;5111967;28;20031;-72
2023/03/05 03:17:34;;;;;;;9.60;2.78;;;;;;;3.01;100.00;101801.59;5112461;28;20123;-71
2023/03/05 03:20:00;;;;;;;10.20;3.72;;;;;;;2.86;100.00;101790.63;5111866;28;20035;-69
2023/03/05 03:25:47;;;;;;;12.13;3.17;;;;;;;2.72;100.00;101780.50;5109947;28;20408;-69
2023/03/05 03:28:13;;;;;;;13.00;5.15;;;;;;;2.62;100.00;101774.41;5114640;28;20035;-70
2023/03/05 03:30:38;;;;;;;6.38;2.50;;;;;;;2.59;100.00;101770.19;5111698;28;20016;-70
2023/03/05 03:36:25;;;;;;;9.65;3.17;;;;;;;2.65;100.00;101769.66;5112013;28;20530;-70
2023/03/05 03:42:12;;;;;;;8.40;2.72;;;;;;;2.59;100.00;101754.34;5111850;28;20360;-70
2023/03/05 03:47:58;;;;;;;8.70;2.80;;;;;;;2.63;100.00;101763.69;5111795;28;20082;-69
2023/03/05 03:53:45;;;;;;;8.27;3.47;;;;;;;2.71;100.00;101757.72;5118088;27;20088;-69
2023/03/05 03:59:32;;;;;;;12.32;4.07;;;;;;;2.69;100.00;101751.75;5113233;28;20084;-70
2023/03/05 04:01:57;;;;;;;10.60;3.60;;;;;;;2.71;100.00;101747.16;5114825;28;20028;-69
2023/03/05 04:04:25;;;;;;;9.93;3.47;;;;;;;2.72;100.00;101747.00;5114851;28;20023;-70
2023/03/05 04:06:50;;;;;;;13.30;4.07;;;;;;;2.74;100.00;101745.06;5118010;27;20055;-70
2023/03/05 04:12:37;;;;;;;8.75;3.85;;;;;;;2.76;100.00;101750.19;5114969;28;20055;-69
2023/03/05 04:18:24;;;;;;;8.20;3.67;;;;;;;2.74;100.00;101737.13;5115137;28;20141;-69
2023/03/05 04:20:49;;;;;;;10.00;4.32;;;;;;;2.69;100.00;101726.16;5117642;28;20047;-68
2023/03/05 04:23:15;;;;;;;8.25;3.90;;;;;;;2.68;100.00;101723.66;5114347;28;20453;-71
2023/03/05 04:25:40;;;;;;;13.60;4.15;;;;;;;2.67;100.00;101714.09;5117612;28;20043;-71
2023/03/05 04:28:06;;;;;;;10.70;3.83;;;;;;;2.69;100.00;101718.25;5114562;28;20103;-72
2023/03/05 04:30:32;;;;;;;11.13;3.78;;;;;;;2.67;100.00;101720.19;5096113;28;20039;-71
2023/03/05 04:36:19;;;;;;;10.48;4.10;;;;;;;2.65;100.00;101716.03;5114987;28;20089;-69
2023/03/05 04:38:44;;;;;;;11.65;4.60;;;;;;;2.69;100.00;101712.97;5117311;27;20481;-69
2023/03/05 04:41:09;;;;;;;9.30;4.38;;;;;;;2.64;100.00;101707.28;5114333;28;20028;-69
2023/03/05 04:43:34;;;;;;;9.85;4.35;;;;;;;2.63;100.00;101713.53;5114191;28;20039;-69
2023/03/05 04:46:00;;;;;;;14.82;6.03;;;;;;;2.70;100.00;101709.34;5095317;28;20397;-69
2023/03/05 04:51:46;;;;;;;12.63;4.57;;;;;;;2.68;100.00;101706.00;5117443;27;20609;-70
2023/03/05 04:57:34;;;;;;;13.13;5.32;;;;;;;2.67;100.00;101706.16;5114419;28;20405;-69
2023/03/05 05:06:49;;;;;;;19.40;5.68;;;;;;;2.63;100.00;101697.69;5113968;28;20053;-70
2023/03/05 05:09:14;;;;;;;15.85;6.57;;;;;;;2.60;100.00;101682.13;5113771;28;20136;-69
2023/03/05 05:15:03;;;;;;;15.15;5.78;;;;;;;2.59;100.00;101680.44;5113983;28;20123;-69
2023/03/05 05:24:50;;;;;;;12.40;7.03;;;;;;;2.68;100.00;101684.06;5113809;28;20046;-69
2023/03/05 05:27:15;;;;;;;13.25;6.90;;;;;;;2.67;100.00;101667.38;5113430;28;20383;-70
2023/03/05 05:33:02;;;;;;;12.63;6.88;;;;;;;2.63;100.00;101676.56;5113813;28;20096;-69
2023/03/05 05:38:49;;;;;;;17.30;7.15;;;;;;;2.60;100.00;101668.94;5111745;28;20494;-69
2023/03/05 05:41:16;;;;;;;16.17;6.78;;;;;;;2.63;100.00;101675.75;5113187;28;20023;-70
2023/03/05 05:43:42;;;;;;;13.68;7.45;;;;;;;2.60;100.00;101671.56;5116300;28;20375;-71
2023/03/05 05:46:12;;;;;;;11.82;6.55;;;;;;;2.63;100.00;101673.94;5113202;28;20039;-70
2023/03/05 05:51:59;;;;;;;13.65;7.00;;;;;;;2.58;100.00;101654.19;5112185;28;20076;-71
2023/03/05 05:54:24;;;;;;;13.52;6.78;;;;;;;2.52;100.00;101652.13;5112126;28;20431;-70
2023/03/05 05:56:49;;;;;;;14.98;6.38;;;;;;;2.54;100.00;101656.28;5116232;28;20051;-70
2023/03/05 05:59:15;;;;;;;10.80;5.68;;;;;;;2.52;100.00;101652.94;5113127;28;20485;-70
2023/03/05 06:05:02;;;;;;;12.98;6.50;;;;;;;2.45;100.00;101644.78;5113218;28;20070;-69
2023/03/05 06:07:27;;;;;;;13.93;6.55;;;;;;;2.51;100.00;101645.19;5094705;28;20055;-69
2023/03/05 06:09:52;;;;;;;12.07;6.90;;;;;;;2.46;100.00;101635.06;5115727;28;20048;-70
2023/03/05 06:12:17;;;;;;;13.50;6.22;;;;;;;2.52;100.00;101645.03;5112977;28;20028;-70
2023/03/05 06:18:05;;;;;;;17.23;7.22;;;;;;;2.48;100.00;101636.56;5112939;28;20509;-69
2023/03/05 06:23:51;;;;;;;10.68;6.22;;;;;;;2.62;100.00;101648.50;5110802;28;20120;-70
2023/03/05 06:29:38;;;;;;;16.60;7.05;;;;;;;2.56;100.00;101649.06;5112911;28;20042;-68
2023/03/05 06:32:03;;;;;;;12.88;7.00;;;;;;;2.48;100.00;101641.00;5112511;28;20036;-69
2023/03/05 06:37:50;;;;;;;10.50;6.70;;;;;;;2.43;100.00;101648.53;5112810;28;20465;-70
2023/03/05 06:43:58;;;;;;;15.70;7.15;;;;;;;2.45;100.00;101646.59;5110472;28;20411;-69
2023/03/05 06:49:44;;;;;;;12.27;7.88;;;;;;;2.49;100.00;101640.88;5112427;28;20119;-70
2023/03/05 06:59:22;;;;;;;19.98;7.55;;;;;;;2.65;100.00;101634.19;5112521;28;20064;-69
2023/03/05 07:05:09;;;;;;;10.57;6.82;;;;;;;2.79;100.00;101637.19;5112768;28;20042;-70
2023/03/05 07:10:57;;;;;;;17.02;7.30;;;;;;;2.92;100.00;101646.63;5110768;28;20383;-68
2023/03/05 07:16:43;;;;;;;14.43;7.32;;;;;;;3.09;100.00;101635.28;5112463;28;20161;-70
2023/03/05 07:22:30;;;;;;;12.23;5.90;;;;;;;3.33;100.00;101647.97;5110298;28;20055;-70
2023/03/05 07:28:17;;;;;;;11.55;5.90;;;;;;;3.31;100.00;101634.06;5116117;28;20427;-71
2023/03/05 07:30:42;;;;;;;9.90;5.63;;;;;;;3.42;100.00;101625.94;5115767;28;20048;-70
2023/03/05 07:33:08;;;;;;;10.15;5.53;;;;;;;3.50;100.00;101619.91;5118373;28;20047;-70
2023/03/05 07:42:16;;;;;;;12.45;5.70;;;;;;;3.93;100.00;101632.41;5115511;28;20081;-71
2023/03/05 07:48:03;;;;;;;10.10;5.25;;;;;;;3.99;100.00;101624.69;5115689;28;20169;-70
2023/03/05 07:53:52;;;;;;;8.60;5.65;;;;;;;3.95;100.00;101633.91;5113627;28;20050;-70
2023/03/05 07:59:39;;;;;;;6.05;4.00;;;;;;;4.20;100.00;101619.09;5115605;28;20047;-70
2023/03/05 08:05:26;;;;;;;6.10;4.35;;;;;;;4.28;100.00;101620.97;5118507;28;20085;-70
2023/03/05 08:11:14;;;;;;;12.80;4.78;;;;;;;4.46;100.00;101611.19;5115448;28;20518;-70
2023/03/05 08:17:03;;;;;;;7.20;4.43;;;;;;;4.62;100.00;101611.28;5115626;28;20063;-70
2023/03/05 08:19:28;;;;;;;8.93;4.60;;;;;;;4.70;100.00;101605.22;5117988;28;20071;-69
2023/03/05 08:21:54;;;;;;;9.95;3.70;;;;;;;4.84;100.00;101607.25;5096549;28;20520;-70
2023/03/05 08:27:42;;;;;;;8.63;4.50;;;;;;;5.04;100.00;101607.03;5112921;28;20506;-69
2023/03/05 08:33:30;;;;;;;9.98;4.70;;;;;;;5.02;100.00;101596.59;5115085;28;20108;-69
2023/03/05 08:39:17;;;;;;;8.07;3.60;;;;;;;5.31;100.00;101588.25;5115150;28;20096;-71
2023/03/05 08:45:04;;;;;;;5.15;3.20;;;;;;;6.04;100.00;101584.91;5114951;28;20490;-70
2023/03/05 08:54:13;;;;;;;3.85;2.60;;;;;;;5.84;100.00;101574.59;5114871;28;20395;-71
2023/03/05 08:59:59;;;;;;;10.73;8.85;;;;;;;6.19;100.00;101573.47;5114412;28;20081;-71
2023/03/05 09:05:46;;;;;;;19.67;17.15;;;;;;;5.81;100.00;101566.16;5112666;28;20059;-71
2023/03/05 09:11:35;;;;;;;9.32;7.10;;;;;;;5.40;100.00;101560.75;5114359;28;20042;-71
2023/03/05 09:17:22;;;;;;;2.72;2.15;;;;;;;5.53;100.00;101560.31;5112403;28;20042;-71
2023/03/05 09:23:09;;;;;;;5.07;3.40;;;;;;;6.40;100.00;101556.19;5114403;28;20050;-71
2023/03/05 09:28:56;;;;;;;11.18;4.18;;;;;;;6.61;100.00;101558.28;5114841;28;20062;-71
2023/03/05 09:34:43;;;;;;;11.82;10.73;;;;;;;6.32;100.00;101545.56;5113886;28;20120;-70
2023/03/05 09:40:40;;;;;;;8.38;4.65;;;;;;;6.78;100.00;101554.56;5114264;28;20062;-71
2023/03/05 09:46:52;;;;;;;3.17;2.28;;;;;;;6.90;100.00;101544.38;5112042;28;20126;-73
2023/03/05 09:52:49;;;;;;;8.57;7.13;;;;;;;6.73;100.00;101535.66;5114041;28;20490;-74
2023/03/05 09:58:39;;;;;;;3.28;2.88;;;;;;;6.55;100.00;101538.53;5113749;28;20085;-75
2023/03/05 10:04:47;;;;;;;2.97;2.20;;;;;;;6.45;100.00;101538.72;5111403;28;20123;-72
2023/03/05 10:10:43;;;;;;;4.47;2.40;;;;;;;6.50;100.00;101525.75;5113481;28;20043;-73
2023/03/05 10:16:52;;;;;;;10.20;9.30;;;;;;;6.77;100.00;101524.50;5113210;28;20077;-72
2023/03/05 10:23:06;;;;;;;5.47;3.00;;;;;;;7.67;100.00;101508.03;5111006;28;20513;-74
2023/03/05 10:29:20;;;;;;;3.33;1.95;;;;;;;7.98;100.00;101505.25;5111701;28;20157;-74
2023/03/05 10:35:33;;;;;;;3.85;2.10;;;;;;;7.78;100.00;101505.75;5112910;28;20429;-74
2023/03/05 10:41:32;;;;;;;4.32;2.00;;;;;;;7.31;100.00;101491.84;5113024;28;20133;-75
2023/03/05 10:47:44;;;;;;;4.63;2.45;;;;;;;7.25;100.00;101503.19;5110788;28;20057;-74
2023/03/05 10:53:37;;;;;;;10.05;9.10;;;;;;;7.42;100.00;101492.25;5112420;28;20043;-73
2023/03/05 10:59:24;;;;;;;1.67;1.45;;;;;;;7.89;99.36;101474.41;5111825;28;20043;-74
2023/03/05 11:05:30;;;;;;;1.42;1.33;;;;;;;8.69;99.02;101470.06;5110499;28;20677;-74
2023/03/05 11:11:20;;;;;;;1.55;1.27;;;;;;;9.04;91.54;101467.59;5112579;28;20054;-73
2023/03/05 11:17:30;;;;;;;2.20;1.30;;;;;;;9.65;94.28;101443.94;5112943;28;20050;-74
2023/03/05 11:23:22;;;;;;;3.75;2.10;;;;;;;9.62;89.28;101441.66;5110592;28;20130;-74
2023/03/05 11:29:21;;;;;;;12.32;8.07;;;;;;;9.97;88.72;101439.03;5112682;28;20063;-73
2023/03/05 11:35:29;;;;;;;3.70;2.63;;;;;;;10.93;86.44;101438.09;5112497;28;20489;-73
2023/03/05 11:41:21;;;;;;;7.55;5.18;;;;;;;10.57;76.21;101429.53;5110207;28;20082;-75
2023/03/05 11:47:48;;;;;;;45.00;16.63;;;;;;;10.37;85.86;101429.44;5112073;28;20051;-73
2023/03/05 11:53:37;;;;;;;10.35;3.60;;;;;;;9.55;85.89;101414.09;5009685;28;20107;-74
2023/03/05 11:59:32;;;;;;;8.45;7.03;;;;;;;9.64;83.19;101410.25;5109968;28;20047;-74
2023/03/05 12:01:58;;;;;;;22.15;16.35;;;;;;;9.57;83.62;101409.38;5111524;28;20084;-72
2023/03/05 12:07:49;;;;;;;3.03;2.70;;;;;;;9.67;82.73;101396.50;5111695;28;20082;-74
2023/03/05 12:13:56;;;;;;;1.90;1.30;;;;;;;9.80;80.57;101383.25;5115592;28;20125;-74
2023/03/05 12:20:05;;;;;;;2.30;1.40;;;;;;;9.56;82.31;101362.34;5113292;28;20430;-75
2023/03/05 12:25:59;;;;;;;2.05;1.80;;;;;;;9.70;81.58;101353.41;5114007;28;20437;-77
2023/03/05 12:31:47;;;;;;;2.67;1.48;;;;;;;9.33;82.07;101341.22;5114995;28;20462;-74
2023/03/05 12:37:34;;;;;;;2.33;1.67;;;;;;;9.29;82.90;101339.97;5113025;28;20126;-73
2023/03/05 12:43:28;;;;;;;1.80;1.70;;;;;;;9.17;81.07;101334.31;5114981;28;20124;-75
2023/03/05 12:49:19;;;;;;;2.03;1.52;;;;;;;8.79;78.79;101315.09;5115199;28;20734;-79
2023/03/05 12:55:21;;;;;;;2.85;1.63;;;;;;;8.66;83.12;101305.13;5113859;28;20076;-77
2023/03/05 13:01:10;;;;;;;11.57;8.65;;;;;;;8.46;81.28;101298.78;5114728;28;20759;-76
2023/03/05 13:07:04;;;;;;;4.68;3.53;;;;;;;8.31;81.89;101281.97;5115040;28;20407;-76
2023/03/05 13:12:52;;;;;;;4.50;1.70;;;;;;;9.11;82.67;101262.22;5114530;28;20039;-75
2023/03/05 13:18:40;;;;;;;2.00;1.80;;;;;;;9.83;77.92;101253.81;5114713;28;20080;-74
2023/03/05 13:24:28;;;;;;;2.53;1.63;;;;;;;9.92;74.66;101264.16;5111871;28;20073;-75
2023/03/05 13:30:26;;;;;;;2.40;1.73;;;;;;;10.02;73.79;101255.75;5114428;28;20093;-74
2023/03/05 13:36:14;;;;;;;3.08;1.85;;;;;;;9.48;74.80;101253.84;5112173;28;20039;-74
2023/03/05 13:42:05;;;;;;;3.88;2.13;;;;;;;9.89;77.56;101243.19;5113936;28;20123;-71
2023/03/05 13:48:05;;;;;;;2.10;1.90;;;;;;;9.78;75.21;101221.56;5113978;28;20380;-73
2023/03/05 13:53:53;;;;;;;2.47;1.83;;;;;;;9.02;77.95;101213.56;5111962;28;20039;-70
2023/03/05 13:59:41;;;;;;;9.85;7.10;;;;;;;8.66;80.52;101200.31;5113706;28;20124;-72
2023/03/05 14:05:30;;;;;;;2.67;2.38;;;;;;;8.47;80.24;101203.66;5111465;28;20078;-71
2023/03/05 14:11:19;;;;;;;6.68;3.97;;;;;;;8.27;84.31;101185.59;5113648;28;20172;-72
2023/03/05 14:13:45;;;;;;;13.80;7.85;;;;;;;8.31;83.42;101199.38;5113165;28;20016;-72
2023/03/05 14:16:23;;;;;;;22.73;11.70;;;;;;;8.28;83.73;101195.25;5113622;27;20517;-71
2023/03/05 14:22:32;;;;;;;88.55;40.95;;;;;;;8.31;84.27;101181.53;5113173;28;20122;-71
2023/03/05 14:28:27;;;;;;;13.20;11.68;;;;;;;7.98;85.05;101165.25;5113435;28;20046;-71
2023/03/05 14:34:26;;;;;;;3.33;3.03;;;;;;;7.71;84.78;101166.78;5110457;28;20105;-73
2023/03/05 14:40:13;;;;;;;4.68;4.30;;;;;;;7.85;84.25;101165.13;5113228;28;20047;-72
2023/03/05 14:45:59;;;;;;;2.03;1.10;;;;;;;7.58;84.30;101153.34;5112835;28;20108;-71
2023/03/05 14:51:46;;;;;;;1.95;1.20;;;;;;;7.60;85.12;101130.03;5112944;28;20080;-71
2023/03/05 14:57:34;;;;;;;1.40;1.30;;;;;;;7.54;85.37;101130.78;5113092;28;20053;-71
2023/03/05 15:03:22;;;;;;;1.20;1.17;;;;;;;7.22;86.57;101124.00;5111734;28;20089;-72
2023/03/05 15:09:11;;;;;;;2.13;1.40;;;;;;;6.87;89.13;101112.28;5112706;28;20051;-73
2023/03/05 15:14:58;;;;;;;1.60;1.50;;;;;;;6.57;91.15;101103.47;5110239;28;20101;-73
2023/03/05 15:20:47;;;;;;;2.67;1.40;;;;;;;6.56;91.39;101109.78;5112287;28;20074;-72
2023/03/05 15:26:35;;;;;;;1.23;1.13;;;;;;;6.42;91.87;101106.13;5112567;28;20050;-72
2023/03/05 15:32:26;;;;;;;1.55;1.45;;;;;;;6.30;92.24;101086.31;5112453;28;20047;-72
2023/03/05 15:38:14;;;;;;;2.25;1.50;;;;;;;6.14;93.73;101078.50;5112298;28;20135;-72
2023/03/05 15:44:01;;;;;;;1.75;1.40;;;;;;;6.04;93.58;101072.59;5110184;28;20137;-72
2023/03/05 15:49:48;;;;;;;2.58;1.40;;;;;;;5.83;96.21;101067.94;5115834;28;20061;-71
2023/03/05 15:55:39;;;;;;;2.97;1.88;;;;;;;5.72;98.60;101061.19;5113720;28;20043;-72
2023/03/05 16:01:26;;;;;;;15.65;6.32;;;;;;;5.60;100.00;101055.47;5115449;28;20518;-72
2023/03/05 16:07:14;;;;;;;97.82;28.58;;;;;;;5.51;100.00;101040.63;5118504;28;20587;-72
2023/03/05 16:13:06;;;;;;;170.93;45.95;;;;;;;5.47;100.00;101036.66;5115468;28;20042;-73
2023/03/05 16:18:54;;;;;;;277.38;78.45;;;;;;;5.44;100.00;101031.72;5115271;28;20416;-73
2023/03/05 16:24:40;;;;;;;22.35;12.90;;;;;;;5.38;100.00;101020.97;5113304;28;20039;-72
2023/03/05 16:30:28;;;;;;;24.92;14.88;;;;;;;5.41;100.00;101018.81;5114898;28;20824;-70
2023/03/05 16:36:26;;;;;;;29.20;26.10;;;;;;;5.36;100.00;101009.72;5113058;28;20108;-72
2023/03/05 16:42:14;;;;;;;4.40;3.00;;;;;;;5.28;100.00;101007.97;5114750;28;20051;-72
2023/03/05 16:48:01;;;;;;;6.78;5.88;;;;;;;5.21;100.00;100991.94;5114688;28;20062;-72
2023/03/05 16:50:26;;;;;;;5.03;4.13;;;;;;;5.21;100.00;101002.56;5117457;28;20479;-72
2023/03/05 16:56:13;;;;;;;5.00;4.25;;;;;;;5.07;100.00;100992.69;5112701;28;20098;-71
2023/03/05 17:02:00;;;;;;;26.48;13.35;;;;;;;4.95;100.00;100988.78;5114586;28;20058;-70
2023/03/05 17:07:47;;;;;;;163.00;75.82;;;;;;;4.92;100.00;100981.19;5115180;28;20050;-71
2023/03/05 17:13:35;;;;;;;23.33;19.67;;;;;;;4.87;100.00;100986.16;5114602;28;20092;-71
2023/03/05 17:19:22;;;;;;;19.52;17.48;;;;;;;4.86;100.00;100982.69;5114691;28;20436;-73
2023/03/05 17:25:09;;;;;;;12.25;7.63;;;;;;;4.75;100.00;100980.44;5113832;28;20047;-73
2023/03/05 17:27:35;;;;;;;5.28;4.00;;;;;;;4.66;100.00;100977.00;5094014;28;20039;-74
2023/03/05 17:30:00;;;;;;;4.85;3.75;;;;;;;4.63;100.00;100987.94;5095677;28;20033;-73
2023/03/05 17:32:25;;;;;;;6.38;3.83;;;;;;;4.53;100.00;100976.69;5116905;28;20554;-75
2023/03/05 17:38:13;;;;;;;5.38;3.45;;;;;;;4.51;100.00;100991.09;5114195;28;20416;-73
2023/03/05 17:47:35;;;;;;;4.38;3.63;;;;;;;4.36;100.00;100977.78;5113897;28;20074;-71
2023/03/05 17:53:22;;;;;;;4.28;3.47;;;;;;;4.34;100.00;100982.41;5113965;28;20085;-73
2023/03/05 17:59:09;;;;;;;4.70;3.90;;;;;;;4.27;100.00;100984.06;5111478;28;20047;-72
2023/03/05 18:04:55;;;;;;;4.78;3.05;;;;;;;4.17;100.00;100976.31;5113658;28;20092;-71
2023/03/05 18:10:42;;;;;;;5.90;2.83;;;;;;;4.15;100.00;100974.84;5111371;28;20089;-72
2023/03/05 18:16:28;;;;;;;3.35;2.47;;;;;;;4.15;100.00;100965.06;5113356;28;20042;-71
2023/03/05 18:22:15;;;;;;;6.95;3.35;;;;;;;4.13;100.00;100968.88;5113722;28;20100;-76
2023/03/05 18:28:06;;;;;;;9.48;4.53;;;;;;;4.11;100.00;100962.94;5113363;28;20097;-75
2023/03/05 18:33:53;;;;;;;9.35;3.75;;;;;;;4.17;100.00;100959.63;5113163;28;20556;-74
2023/03/05 18:39:39;;;;;;;7.15;3.38;;;;;;;4.07;100.00;100953.69;5111238;28;20042;-74
2023/03/05 18:45:27;;;;;;;9.10;4.88;;;;;;;4.00;100.00;100941.13;5113081;28;20066;-73
2023/03/05 18:51:17;;;;;;;8.73;3.60;;;;;;;4.03;100.00;100942.59;5111227;28;20144;-72
2023/03/05 18:57:03;;;;;;;13.57;8.48;;;;;;;3.91;100.00;100941.31;5113239;28;20099;-72
2023/03/05 19:02:51;;;;;;;5.80;3.20;;;;;;;3.80;100.00;100928.44;5113063;28;20068;-77
2023/03/05 19:08:38;;;;;;;3.88;3.22;;;;;;;3.77;100.00;100934.91;5112751;28;20559;-73
2023/03/05 19:14:25;;;;;;;3.60;2.35;;;;;;;3.66;100.00;100935.22;5112733;28;20539;-72
2023/03/05 19:20:13;;;;;;;4.07;2.45;;;;;;;3.58;100.00;100922.84;5112970;28;20054;-75
2023/03/05 19:26:00;;;;;;;4.72;2.80;;;;;;;3.55;100.00;100922.34;5116459;28;20086;-72
2023/03/05 19:31:48;;;;;;;4.20;2.92;;;;;;;3.43;100.00;100914.75;5114365;28;20054;-74
2023/03/05 19:37:35;;;;;;;5.68;2.40;;;;;;;3.37;100.00;100904.84;5116469;28;20065;-71
2023/03/05 19:43:21;;;;;;;3.88;2.63;;;;;;;3.35;100.00;100893.63;5116007;28;20039;-71
2023/03/05 19:49:09;;;;;;;7.55;2.72;;;;;;;3.29;100.00;100891.63;5115627;28;20419;-73
2023/03/05 19:54:56;;;;;;;3.03;2.60;;;;;;;3.19;100.00;100884.88;5115825;28;20542;-71
2023/03/05 20:00:43;;;;;;;5.22;2.70;;;;;;;3.10;100.00;100891.94;5113615;28;20069;-72
2023/03/05 20:06:31;;;;;;;7.15;4.65;;;;;;;3.11;100.00;100888.31;5115590;28;20047;-70
2023/03/05 20:12:18;;;;;;;50.85;18.48;;;;;;;3.05;100.00;100878.41;5113540;28;20092;-73
2023/03/05 20:18:05;;;;;;;25.83;9.60;;;;;;;2.98;100.00;100866.88;5115445;28;20105;-73
2023/03/05 20:23:58;;;;;;;11.25;4.45;;;;;;;2.93;100.00;100871.81;5117712;27;20039;-72
2023/03/05 20:29:45;;;;;;;4.53;3.00;;;;;;;2.94;100.00;100866.38;5114334;28;20062;-71
2023/03/05 20:35:32;;;;;;;5.88;2.58;;;;;;;2.91;100.00;100853.50;5115298;28;20099;-72
2023/03/05 20:41:22;;;;;;;5.32;3.50;;;;;;;2.90;100.00;100853.66;5117412;28;20563;-71
2023/03/05 20:47:24;;;;;;;5.75;3.35;;;;;;;2.80;100.00;100835.31;5114971;28;20091;-72
2023/03/05 20:53:13;;;;;;;4.53;3.30;;;;;;;2.79;100.00;100841.59;5115578;28;20096;-72
2023/03/05 20:59:03;;;;;;;5.35;3.63;;;;;;;2.80;100.00;100840.59;5113901;28;20073;-73
2023/03/05 21:04:50;;;;;;;5.35;3.45;;;;;;;2.78;100.00;100832.84;5114593;28;20042;-73
2023/03/05 21:10:37;;;;;;;5.53;3.35;;;;;;;2.77;100.00;100836.47;5114192;28;20084;-72
2023/03/05 21:16:26;;;;;;;4.63;3.35;;;;;;;2.78;100.00;100826.72;5114480;28;20105;-75
2023/03/05 21:18:51;;;;;;;49.67;23.63;;;;;;;2.72;100.00;100828.22;5095352;28;20158;-74
2023/03/05 21:24:52;;;;;;;53.15;25.80;;;;;;;2.76;100.00;100816.34;5117195;28;20059;-72
2023/03/05 21:30:43;;;;;;;7.32;4.22;;;;;;;2.64;100.00;100812.38;5112465;28;20046;-74
2023/03/05 21:36:30;;;;;;;4.68;3.17;;;;;;;2.43;100.00;100788.25;5114217;28;20051;-75
2023/03/05 21:42:17;;;;;;;4.72;3.10;;;;;;;2.51;100.00;100798.00;5112035;28;20620;-73
2023/03/05 21:48:05;;;;;;;3.78;3.10;;;;;;;2.44;100.00;100798.66;5113980;28;20126;-73
2023/03/05 21:53:52;;;;;;;6.30;3.78;;;;;;;2.38;100.00;100795.84;5114027;28;20054;-75
2023/03/05 21:59:40;;;;;;;7.13;4.10;;;;;;;2.35;100.00;100785.63;5113972;28;20073;-74
2023/03/05 22:05:27;;;;;;;6.50;3.40;;;;;;;2.30;100.00;100761.50;5113590;28;20046;-74
2023/03/05 22:11:16;;;;;;;5.63;3.65;;;;;;;2.32;100.00;100764.84;5111546;28;20046;-73
2023/03/05 22:17:03;;;;;;;5.65;4.07;;;;;;;2.28;100.00;100758.22;5113612;28;20449;-74
2023/03/05 22:19:28;;;;;;;6.00;4.10;;;;;;;2.21;100.00;100744.03;5113022;28;20055;-74
2023/03/05 22:21:54;;;;;;;3.95;3.10;;;;;;;2.25;100.00;100759.34;5116102;28;20035;-74
2023/03/05 22:24:21;;;;;;;6.75;3.42;;;;;;;2.19;100.00;100746.81;5094650;28;20694;-74
2023/03/05 22:33:30;;;;;;;4.13;3.22;;;;;;;2.23;100.00;100740.22;5112948;28;20050;-74
2023/03/05 22:39:17;;;;;;;8.05;5.32;;;;;;;2.27;100.00;100731.00;5113146;28;20046;-74
2023/03/05 22:45:08;;;;;;;4.05;3.28;;;;;;;2.22;100.00;100725.41;5113110;28;20050;-73
2023/03/05 22:47:34;;;;;;;4.22;3.35;;;;;;;2.18;100.00;100716.16;5114871;28;20081;-73
2023/03/05 22:53:21;;;;;;;4.68;3.13;;;;;;;2.14;100.00;100714.84;5112920;28;20541;-74
2023/03/05 22:55:47;;;;;;;4.43;2.95;;;;;;;2.08;100.00;100707.59;5114413;28;20044;-74
2023/03/05 22:58:12;;;;;;;4.35;3.10;;;;;;;2.03;100.00;100700.16;5112512;28;20066;-74
2023/03/05 23:04:06;;;;;;;4.53;3.20;;;;;;;1.99;100.00;100701.44;5112497;28;20062;-73
2023/03/05 23:06:32;;;;;;;4.80;3.38;;;;;;;1.94;100.00;100695.00;5112504;28;20488;-73
2023/03/05 23:08:57;;;;;;;3.97;3.20;;;;;;;1.92;100.00;100703.09;5093731;28;20069;-74
2023/03/05 23:14:43;;;;;;;6.38;3.53;;;;;;;1.86;100.00;100685.28;5115614;27;20034;-74
2023/03/05 23:17:09;;;;;;;4.10;3.35;;;;;;;1.84;100.00;100682.81;5112320;28;20114;-74
2023/03/05 23:19:37;;;;;;;6.65;4.30;;;;;;;1.86;100.00;100685.28;5112318;28;20039;-74
2023/03/05 23:22:04;;;;;;;4.63;3.60;;;;;;;1.86;100.00;100695.84;5115285;28;20066;-74
2023/03/05 23:24:30;;;;;;;6.30;3.72;;;;;;;1.86;100.00;100682.66;5112251;28;20184;-75
2023/03/05 23:30:22;;;;;;;6.45;4.35;;;;;;;1.83;100.00;100675.06;5110544;28;20043;-74
2023/03/05 23:33:03;;;;;;;12.60;4.50;;;;;;;1.83;100.00;100678.53;5112071;28;20043;-74
2023/03/05 23:35:31;;;;;;;7.60;4.18;;;;;;;1.81;100.00;100669.97;5115120;27;20484;-74
2023/03/05 23:41:18;;;;;;;6.78;4.15;;;;;;;1.76;100.00;100667.00;5113617;28;20133;-74
2023/03/05 23:47:05;;;;;;;5.80;4.15;;;;;;;1.71;100.00;100671.06;5112075;28;20046;-75
2023/03/05 23:52:53;;;;;;;8.40;5.25;;;;;;;1.74;100.00;100665.50;5112296;28;20080;-75
2023/03/05 23:55:21;;;;;;;10.27;4.95;;;;;;;1.78;100.00;100656.28;5114837;28;20039;-75
2023/03/05 23:57:47;;;;;;;7.45;4.72;;;;;;;1.83;100.00;100653.97;5093516;28;20027;-74
